createdAt,value
2023-05-05T00:01:25.282Z,7.90
2023-05-05T00:03:52.907Z,8.00
2023-05-05T00:06:19.820Z,7.40
2023-05-05T00:08:47.270Z,7.50
2023-05-05T00:11:14.347Z,7.30
2023-05-05T00:13:41.108Z,9.30
2023-05-05T00:16:07.997Z,7.00
2023-05-05T00:18:34.957Z,7.10
2023-05-05T00:21:01.708Z,8.00
2023-05-05T00:23:28.442Z,9.00
2023-05-05T00:25:55.277Z,8.60
2023-05-05T00:28:22.200Z,9.20
2023-05-05T00:30:48.997Z,8.50
2023-05-05T00:33:16.007Z,8.90
2023-05-05T00:35:42.791Z,8.10
2023-05-05T00:38:09.571Z,7.60
2023-05-05T00:40:37.408Z,6.60
2023-05-05T00:43:04.273Z,5.70
2023-05-05T00:45:31.184Z,5.90
2023-05-05T00:48:00.015Z,5.50
2023-05-05T00:50:30.032Z,5.50
2023-05-05T00:53:06.991Z,5.00
2023-05-05T00:55:35.693Z,5.20
2023-05-05T00:58:04.404Z,4.50
2023-05-05T01:00:31.727Z,5.70
2023-05-05T01:02:59.551Z,4.40
2023-05-05T01:05:33.597Z,4.80
2023-05-05T01:08:18.111Z,4.40
2023-05-05T01:10:52.178Z,4.50
2023-05-05T01:13:45.472Z,4.50
2023-05-05T01:16:21.237Z,4.20
2023-05-05T01:18:51.566Z,4.20
2023-05-05T01:21:35.102Z,4.70
2023-05-05T01:24:22.201Z,4.30
2023-05-05T01:27:12.140Z,4.70
2023-05-05T01:30:00.172Z,4.30
2023-05-05T01:32:31.455Z,4.10
2023-05-05T01:35:18.327Z,4.50
2023-05-05T01:37:59.143Z,4.60
2023-05-05T01:40:32.009Z,5.10
2023-05-05T01:43:00.859Z,4.80
2023-05-05T01:45:32.334Z,4.60
2023-05-05T01:48:01.112Z,5.10
2023-05-05T01:50:29.896Z,4.40
2023-05-05T01:52:57.917Z,4.70
2023-05-05T01:55:28.137Z,4.70
2023-05-05T01:57:58.918Z,4.80
2023-05-05T02:00:28.343Z,4.30
2023-05-05T02:02:57.483Z,4.80
2023-05-05T02:05:26.887Z,4.80
2023-05-05T02:07:58.258Z,4.80
2023-05-05T02:10:25.440Z,4.20
2023-05-05T02:12:53.415Z,4.20
2023-05-05T02:15:23.036Z,4.50
2023-05-05T02:17:54.852Z,4.70
2023-05-05T02:20:24.586Z,4.50
2023-05-05T02:22:51.398Z,4.30
2023-05-05T02:25:18.349Z,4.60
2023-05-05T02:27:48.304Z,4.30
2023-05-05T02:30:18.457Z,4.40
2023-05-05T02:32:53.639Z,4.50
2023-05-05T02:35:25.184Z,4.50
2023-05-05T02:38:00.556Z,3.80
2023-05-05T02:40:33.201Z,4.40
2023-05-05T02:43:08.265Z,4.30
2023-05-05T02:45:35.107Z,4.90
2023-05-05T02:48:05.895Z,4.50
2023-05-05T02:50:33.768Z,4.70
2023-05-05T02:53:00.845Z,4.50
2023-05-05T02:55:49.339Z,4.10
2023-05-05T02:58:24.609Z,4.90
2023-05-05T03:01:16.319Z,4.40
2023-05-05T03:04:06.455Z,4.70
2023-05-05T03:06:40.770Z,4.10
2023-05-05T03:09:11.500Z,4.40
2023-05-05T03:11:51.235Z,4.50
2023-05-05T03:14:21.220Z,4.50
2023-05-05T03:16:49.634Z,4.30
2023-05-05T03:19:20.415Z,4.10
2023-05-05T03:21:47.820Z,4.60
2023-05-05T03:24:18.959Z,4.60
2023-05-05T03:26:47.132Z,4.90
2023-05-05T03:29:15.392Z,5.10
2023-05-05T03:31:42.644Z,4.60
2023-05-05T03:34:09.745Z,4.50
2023-05-05T03:36:36.955Z,4.60
2023-05-05T03:39:03.860Z,5.40
2023-05-05T03:41:31.151Z,4.50
2023-05-05T03:43:57.903Z,5.00
2023-05-05T03:46:24.653Z,5.10
2023-05-05T03:48:51.968Z,4.70
2023-05-05T03:51:18.885Z,5.90
2023-05-05T03:53:45.714Z,5.50
2023-05-05T03:56:12.521Z,5.50
2023-05-05T03:58:39.353Z,4.70
2023-05-05T04:01:06.232Z,5.50
2023-05-05T04:03:33.253Z,4.90
2023-05-05T04:06:00.288Z,5.20
2023-05-05T04:08:27.142Z,5.00
2023-05-05T04:10:54.048Z,5.50
2023-05-05T04:13:20.941Z,5.00
2023-05-05T04:15:47.862Z,5.10
2023-05-05T04:18:14.661Z,5.10
2023-05-05T04:20:41.636Z,5.20
2023-05-05T04:23:08.445Z,5.00
2023-05-05T04:25:35.546Z,4.50
2023-05-05T04:28:03.080Z,5.20
2023-05-05T04:30:29.939Z,5.40
2023-05-05T04:32:57.279Z,5.20
2023-05-05T04:35:24.050Z,5.00
2023-05-05T04:37:50.921Z,5.20
2023-05-05T04:40:17.810Z,5.40
2023-05-05T04:42:44.555Z,5.90
2023-05-05T04:45:11.813Z,6.20
2023-05-05T04:47:39.544Z,6.20
2023-05-05T04:50:07.576Z,6.30
2023-05-05T04:52:34.795Z,6.30
2023-05-05T04:55:01.621Z,6.40
2023-05-05T04:57:29.944Z,6.40
2023-05-05T04:59:56.728Z,5.70
2023-05-05T05:02:23.671Z,5.80
2023-05-05T05:04:50.500Z,6.00
2023-05-05T05:07:17.258Z,6.20
2023-05-05T05:09:44.052Z,6.40
2023-05-05T05:12:11.140Z,7.10
2023-05-05T05:14:38.883Z,6.30
2023-05-05T05:17:06.845Z,6.30
2023-05-05T05:19:33.898Z,6.60
2023-05-05T05:22:00.718Z,6.60
2023-05-05T05:24:27.807Z,6.10
2023-05-05T05:26:54.592Z,6.40
2023-05-05T05:29:21.326Z,6.00
2023-05-05T05:31:48.158Z,6.20
2023-05-05T05:34:15.043Z,5.90
2023-05-05T05:36:41.872Z,5.80
2023-05-05T05:39:08.666Z,5.90
2023-05-05T05:41:35.694Z,5.80
2023-05-05T05:44:02.466Z,5.40
2023-05-05T05:46:29.369Z,5.70
2023-05-05T05:48:56.878Z,5.60
2023-05-05T05:51:23.737Z,5.10
2023-05-05T05:53:51.993Z,5.40
2023-05-05T05:56:18.761Z,4.90
2023-05-05T05:58:45.770Z,4.60
2023-05-05T06:01:12.765Z,4.80
2023-05-05T06:03:39.617Z,4.50
2023-05-05T06:06:07.602Z,4.60
2023-05-05T06:08:34.436Z,4.30
2023-05-05T06:11:01.279Z,4.30
2023-05-05T06:13:28.610Z,4.50
2023-05-05T06:15:55.794Z,4.60
2023-05-05T06:18:22.583Z,4.40
2023-05-05T06:20:51.080Z,4.40
2023-05-05T06:23:18.528Z,3.70
2023-05-05T06:25:45.323Z,4.20
2023-05-05T06:28:12.126Z,4.20
2023-05-05T06:30:38.997Z,4.50
2023-05-05T06:33:05.890Z,5.30
2023-05-05T06:35:32.877Z,6.10
2023-05-05T06:38:02.309Z,5.60
2023-05-05T06:40:29.234Z,5.70
2023-05-05T06:42:56.215Z,6.60
2023-05-05T06:45:23.174Z,5.80
2023-05-05T06:47:50.077Z,5.80
2023-05-05T06:50:17.400Z,5.50
2023-05-05T06:52:44.419Z,6.10
2023-05-05T06:55:11.473Z,5.40
2023-05-05T06:57:38.501Z,5.50
2023-05-05T07:00:08.405Z,5.80
2023-05-05T07:02:35.696Z,5.30
2023-05-05T07:05:02.719Z,5.30
2023-05-05T07:07:29.705Z,5.30
2023-05-05T07:09:56.763Z,5.80
2023-05-05T07:12:23.799Z,5.40
2023-05-05T07:14:50.752Z,4.30
2023-05-05T07:17:18.148Z,5.20
2023-05-05T07:19:45.078Z,5.60
2023-05-05T07:22:12.000Z,5.30
2023-05-05T07:24:39.233Z,5.40
2023-05-05T07:27:07.235Z,5.40
2023-05-05T07:29:34.301Z,5.70
2023-05-05T07:32:01.193Z,5.60
2023-05-05T07:34:28.119Z,6.00
2023-05-05T07:36:56.591Z,5.40
2023-05-05T07:39:23.632Z,6.00
2023-05-05T07:41:50.790Z,5.80
2023-05-05T07:44:17.937Z,4.50
2023-05-05T07:46:44.956Z,4.40
2023-05-05T07:49:11.989Z,4.30
2023-05-05T07:51:39.012Z,3.90
2023-05-05T07:54:06.039Z,4.10
2023-05-05T07:56:33.446Z,4.10
2023-05-05T07:59:00.807Z,4.20
2023-05-05T08:01:27.826Z,3.90
2023-05-05T08:03:54.971Z,4.00
2023-05-05T08:06:22.497Z,3.90
2023-05-05T08:08:49.849Z,3.30
2023-05-05T08:11:17.692Z,3.20
2023-05-05T08:13:44.688Z,2.80
2023-05-05T08:16:12.637Z,3.30
2023-05-05T08:18:39.950Z,3.50
2023-05-05T08:21:08.434Z,3.70
2023-05-05T08:23:36.055Z,2.90
2023-05-05T08:26:05.030Z,2.70
2023-05-05T08:28:33.084Z,3.50
2023-05-05T08:31:00.089Z,3.00
2023-05-05T08:33:27.099Z,3.40
2023-05-05T08:35:53.966Z,3.40
2023-05-05T08:38:20.909Z,3.40
2023-05-05T08:40:47.853Z,3.20
2023-05-05T08:43:16.118Z,3.60
2023-05-05T08:45:43.596Z,3.40
2023-05-05T08:48:12.425Z,3.20
2023-05-05T08:50:40.866Z,3.70
2023-05-05T08:53:16.980Z,3.50
2023-05-05T08:55:56.575Z,2.90
2023-05-05T08:58:26.369Z,2.60
2023-05-05T09:00:55.747Z,2.90
2023-05-05T09:03:23.062Z,3.20
2023-05-05T09:05:51.396Z,3.00
2023-05-05T09:08:18.962Z,3.90
2023-05-05T09:10:46.523Z,3.90
2023-05-05T09:15:53.175Z,3.50
2023-05-05T09:18:20.224Z,3.60
2023-05-05T09:20:47.174Z,3.30
2023-05-05T09:23:18.277Z,3.10
2023-05-05T09:25:47.861Z,3.00
2023-05-05T09:28:17.271Z,3.50
2023-05-05T09:30:46.999Z,3.00
2023-05-05T09:33:14.746Z,3.30
2023-05-05T09:35:56.201Z,3.00
2023-05-05T09:38:25.022Z,2.80
2023-05-05T09:40:54.164Z,3.10
2023-05-05T09:43:23.426Z,2.90
2023-05-05T09:45:51.563Z,3.00
2023-05-05T09:48:31.182Z,2.90
2023-05-05T09:50:59.503Z,2.60
2023-05-05T09:53:27.392Z,2.70
2023-05-05T09:55:55.266Z,2.70
2023-05-05T09:58:25.268Z,2.70
2023-05-05T10:00:53.253Z,2.60
2023-05-05T10:03:21.158Z,2.70
2023-05-05T10:05:50.616Z,2.50
2023-05-05T10:10:57.615Z,2.30
2023-05-05T10:13:25.652Z,2.70
2023-05-05T10:15:54.976Z,2.50
2023-05-05T10:18:27.184Z,2.70
2023-05-05T10:21:04.424Z,3.00
2023-05-05T10:23:45.619Z,2.50
2023-05-05T10:26:14.816Z,2.70
2023-05-05T10:28:45.328Z,2.40
2023-05-05T10:31:26.317Z,2.30
2023-05-05T10:34:03.582Z,2.60
2023-05-05T10:36:34.117Z,2.80
2023-05-05T10:39:01.744Z,2.60
2023-05-05T10:41:31.732Z,2.50
2023-05-05T10:44:00.442Z,2.30
2023-05-05T10:46:29.844Z,2.30
2023-05-05T10:49:12.469Z,2.70
2023-05-05T10:51:41.213Z,2.30
2023-05-05T10:54:22.070Z,2.40
2023-05-05T10:56:50.190Z,2.20
2023-05-05T10:59:38.939Z,2.40
2023-05-05T11:02:27.303Z,2.80
2023-05-05T11:05:23.840Z,2.60
2023-05-05T11:07:51.983Z,2.30
2023-05-05T11:10:21.287Z,2.30
2023-05-05T11:15:50.194Z,2.40
2023-05-05T11:18:36.506Z,2.40
2023-05-05T11:21:15.800Z,2.20
2023-05-05T11:26:12.073Z,2.20
2023-05-05T11:29:03.311Z,2.00
2023-05-05T11:31:32.057Z,2.00
2023-05-05T11:34:29.702Z,2.10
2023-05-05T11:37:03.553Z,2.20
2023-05-05T11:39:41.532Z,2.00
2023-05-05T11:42:28.918Z,2.00
2023-05-05T11:44:56.603Z,1.90
2023-05-05T11:47:23.471Z,2.20
2023-05-05T11:49:50.703Z,2.20
2023-05-05T11:52:17.785Z,2.20
2023-05-05T11:54:49.076Z,2.20
2023-05-05T11:57:22.081Z,2.10
2023-05-05T11:59:57.528Z,2.00
2023-05-05T12:02:26.820Z,2.20
2023-05-05T12:04:54.218Z,2.30
2023-05-05T12:07:23.741Z,2.10
2023-05-05T12:12:19.120Z,2.40
2023-05-05T12:14:51.865Z,2.20
2023-05-05T12:17:23.113Z,2.20
2023-05-05T12:19:55.093Z,2.20
2023-05-05T12:22:27.392Z,2.40
2023-05-05T12:24:56.325Z,2.20
2023-05-05T12:27:24.196Z,2.40
2023-05-05T12:29:51.999Z,2.30
2023-05-05T12:32:22.964Z,2.50
2023-05-05T12:34:54.377Z,2.60
2023-05-05T12:37:23.012Z,2.70
2023-05-05T12:39:50.980Z,3.20
2023-05-05T12:42:19.227Z,2.90
2023-05-05T12:44:47.101Z,3.40
2023-05-05T12:47:15.092Z,2.90
2023-05-05T12:49:46.558Z,3.40
2023-05-05T12:52:14.616Z,3.10
2023-05-05T12:54:56.432Z,2.70
2023-05-05T12:57:23.782Z,2.80
2023-05-05T12:59:52.981Z,3.00
2023-05-05T13:02:20.994Z,3.10
2023-05-05T13:04:51.898Z,3.10
2023-05-05T13:07:21.433Z,3.00
2023-05-05T13:09:50.383Z,2.70
2023-05-05T13:12:22.149Z,3.00
2023-05-05T13:14:50.056Z,2.80
2023-05-05T13:17:17.305Z,2.70
2023-05-05T13:19:46.628Z,2.60
2023-05-05T13:22:13.755Z,3.00
2023-05-05T13:24:50.970Z,2.70
2023-05-05T13:27:19.666Z,3.00
2023-05-05T13:29:46.976Z,3.20
2023-05-05T13:32:13.947Z,2.80
2023-05-05T13:34:42.014Z,2.60
2023-05-05T13:37:08.994Z,2.70
2023-05-05T13:39:37.175Z,2.40
2023-05-05T13:42:04.335Z,2.60
2023-05-05T13:44:31.569Z,2.70
2023-05-05T13:46:58.572Z,2.80
2023-05-05T13:49:26.045Z,2.60
2023-05-05T13:51:53.206Z,2.50
2023-05-05T13:54:20.196Z,2.30
2023-05-05T13:56:47.186Z,2.50
2023-05-05T13:59:14.264Z,2.50
2023-05-05T14:01:41.347Z,2.60
2023-05-05T14:04:08.587Z,2.70
2023-05-05T14:06:36.730Z,2.60
2023-05-05T14:09:06.271Z,2.30
2023-05-05T14:11:33.796Z,2.30
2023-05-05T14:14:00.838Z,2.50
2023-05-05T14:16:27.869Z,2.60
2023-05-05T14:18:55.020Z,2.30
2023-05-05T14:21:22.056Z,2.40
2023-05-05T14:23:48.851Z,2.20
2023-05-05T14:26:15.693Z,2.60
2023-05-05T14:28:43.806Z,2.30
2023-05-05T14:31:11.323Z,2.40
2023-05-05T14:33:38.320Z,2.30
2023-05-05T14:36:05.700Z,2.30
2023-05-05T14:38:32.481Z,2.20
2023-05-05T14:40:59.614Z,2.30
2023-05-05T14:43:26.412Z,2.40
2023-05-05T14:45:53.474Z,2.10
2023-05-05T14:48:22.682Z,2.30
2023-05-05T14:50:50.116Z,2.30
2023-05-05T14:53:18.993Z,2.10
2023-05-05T14:55:45.896Z,2.20
2023-05-05T14:58:12.787Z,2.30
2023-05-05T15:00:39.761Z,2.50
2023-05-05T15:03:06.853Z,2.40
2023-05-05T15:05:34.000Z,2.30
2023-05-05T15:08:00.959Z,2.30
2023-05-05T15:10:28.038Z,2.20
2023-05-05T15:12:55.103Z,2.40
2023-05-05T15:15:21.942Z,2.20
2023-05-05T15:17:50.866Z,2.30
2023-05-05T15:20:17.794Z,2.10
2023-05-05T15:22:44.582Z,2.40
2023-05-05T15:25:13.378Z,2.00
2023-05-05T15:27:40.473Z,2.80
2023-05-05T15:30:07.835Z,2.10
2023-05-05T15:32:34.831Z,2.30
2023-05-05T15:35:01.798Z,2.20
2023-05-05T15:37:29.414Z,2.30
2023-05-05T15:39:56.425Z,2.30
2023-05-05T15:42:23.580Z,2.50
2023-05-05T15:44:51.393Z,2.40
2023-05-05T15:47:18.755Z,2.10
2023-05-05T15:49:45.662Z,2.10
2023-05-05T15:52:13.248Z,2.20
2023-05-05T15:54:39.982Z,2.00
2023-05-05T15:57:06.901Z,2.20
2023-05-05T15:59:33.848Z,2.00
2023-05-05T16:02:00.853Z,2.20
2023-05-05T16:04:27.638Z,2.10
2023-05-05T16:06:55.533Z,2.10
2023-05-05T16:09:22.282Z,2.50
2023-05-05T16:11:49.218Z,2.30
2023-05-05T16:14:16.121Z,2.10
2023-05-05T16:16:42.987Z,2.40
2023-05-05T16:19:09.760Z,2.10
2023-05-05T16:21:36.738Z,2.40
2023-05-05T16:24:03.596Z,2.30
2023-05-05T16:26:30.440Z,2.40
2023-05-05T16:28:57.437Z,2.20
2023-05-05T16:31:24.238Z,2.50
2023-05-05T16:33:51.103Z,2.40
2023-05-05T16:36:17.990Z,2.30
2023-05-05T16:38:44.748Z,2.70
2023-05-05T16:41:11.648Z,2.20
2023-05-05T16:43:39.153Z,2.30
2023-05-05T16:46:06.979Z,2.20
2023-05-05T16:48:33.818Z,2.10
2023-05-05T16:51:01.550Z,2.30
2023-05-05T16:53:28.305Z,2.50
2023-05-05T16:55:55.109Z,2.20
2023-05-05T16:58:25.678Z,3.00
2023-05-05T17:00:53.097Z,2.60
2023-05-05T17:03:20.563Z,2.50
2023-05-05T17:05:50.264Z,2.30
2023-05-05T17:08:17.436Z,2.20
2023-05-05T17:10:45.569Z,3.50
2023-05-05T17:13:13.906Z,2.40
2023-05-05T17:15:41.775Z,2.40
2023-05-05T17:18:08.869Z,2.70
2023-05-05T17:20:36.584Z,2.60
2023-05-05T17:23:03.400Z,2.20
2023-05-05T17:25:30.306Z,2.60
2023-05-05T17:27:57.724Z,2.60
2023-05-05T17:30:24.576Z,2.80
2023-05-05T17:32:51.407Z,2.60
2023-05-05T17:35:18.726Z,2.80
2023-05-05T17:37:45.568Z,2.90
2023-05-05T17:40:12.560Z,2.60
2023-05-05T17:42:39.381Z,2.70
2023-05-05T17:45:06.743Z,3.00
2023-05-05T17:47:33.785Z,2.90
2023-05-05T17:50:00.945Z,2.90
2023-05-05T17:52:28.301Z,2.70
2023-05-05T17:54:55.142Z,3.30
2023-05-05T17:57:22.955Z,3.00
2023-05-05T17:59:50.558Z,3.70
2023-05-05T18:02:17.481Z,3.80
2023-05-05T18:04:44.357Z,4.30
2023-05-05T18:07:12.447Z,4.70
2023-05-05T18:09:39.666Z,4.80
2023-05-05T18:12:07.884Z,5.50
2023-05-05T18:14:34.691Z,5.50
2023-05-05T18:17:01.606Z,6.00
2023-05-05T18:19:28.426Z,6.80
2023-05-05T18:21:55.454Z,6.30
2023-05-05T18:24:22.399Z,6.10
2023-05-05T18:26:51.484Z,6.90
2023-05-05T18:29:19.754Z,6.40
2023-05-05T18:31:49.503Z,6.30
2023-05-05T18:34:17.386Z,6.20
2023-05-05T18:36:44.638Z,6.00
2023-05-05T18:39:11.548Z,6.80
2023-05-05T18:41:38.488Z,6.50
2023-05-05T18:44:05.448Z,6.50
2023-05-05T18:46:32.424Z,6.50
2023-05-05T18:49:00.841Z,7.40
2023-05-05T18:51:28.510Z,7.50
2023-05-05T18:53:55.781Z,7.70
2023-05-05T18:56:22.592Z,8.10
2023-05-05T18:58:49.478Z,8.20
2023-05-05T19:01:16.511Z,8.40
2023-05-05T19:03:47.991Z,9.10
2023-05-05T19:06:16.060Z,7.80
2023-05-05T19:08:43.902Z,8.20
2023-05-05T19:11:10.944Z,8.80
2023-05-05T19:16:06.185Z,10.70
2023-05-05T19:18:33.681Z,11.80
2023-05-05T19:21:03.244Z,10.30
2023-05-05T19:23:30.036Z,9.40
2023-05-05T19:25:56.861Z,10.90
2023-05-05T19:28:23.648Z,12.40
2023-05-05T19:30:50.556Z,11.70
2023-05-05T19:33:17.542Z,9.90
2023-05-05T19:35:44.660Z,11.90
2023-05-05T19:38:12.127Z,12.10
2023-05-05T19:40:40.740Z,9.60
2023-05-05T19:43:07.943Z,10.60
2023-05-05T19:45:35.227Z,12.20
2023-05-05T19:48:02.183Z,11.50
2023-05-05T19:50:30.509Z,12.70
2023-05-05T19:52:57.873Z,11.70
2023-05-05T19:55:25.070Z,11.80
2023-05-05T19:57:51.854Z,10.10
2023-05-05T20:00:19.757Z,10.60
2023-05-05T20:02:48.716Z,10.00
2023-05-05T20:05:17.637Z,9.00
2023-05-05T20:07:46.908Z,9.80
2023-05-05T20:10:14.032Z,10.00
2023-05-05T20:12:48.375Z,10.60
2023-05-05T20:15:19.206Z,10.10
2023-05-05T20:17:47.517Z,11.00
2023-05-05T20:20:21.408Z,11.10
2023-05-05T20:22:49.592Z,11.40
2023-05-05T20:25:16.755Z,10.60
2023-05-05T20:27:44.370Z,11.50
2023-05-05T20:30:12.439Z,12.00
2023-05-05T20:32:39.569Z,10.20
2023-05-05T20:35:07.548Z,10.80
2023-05-05T20:37:34.566Z,10.40
2023-05-05T20:40:01.604Z,11.00
2023-05-05T20:42:29.927Z,9.60
2023-05-05T20:44:57.202Z,10.30
2023-05-05T20:47:24.466Z,9.20
2023-05-05T20:49:52.966Z,8.70
2023-05-05T20:52:20.006Z,8.50
2023-05-05T20:54:46.741Z,8.30
2023-05-05T20:57:13.651Z,8.10
2023-05-05T20:59:40.441Z,8.10
2023-05-05T21:02:07.895Z,7.70
2023-05-05T21:04:34.782Z,7.60
2023-05-05T21:07:01.767Z,8.00
2023-05-05T21:09:28.721Z,7.40
2023-05-05T21:11:55.589Z,7.50
2023-05-05T21:14:23.263Z,7.00
2023-05-05T21:16:50.228Z,7.50
2023-05-05T21:19:17.091Z,7.30
2023-05-05T21:21:44.604Z,6.70
2023-05-05T21:24:13.137Z,6.70
2023-05-05T21:26:44.330Z,6.90
2023-05-05T21:29:11.602Z,6.90
2023-05-05T21:31:38.678Z,7.20
2023-05-05T21:34:05.581Z,8.00
2023-05-05T21:36:34.017Z,7.20
2023-05-05T21:39:01.554Z,7.00
2023-05-05T21:41:28.449Z,6.70
2023-05-05T21:43:56.028Z,7.10
2023-05-05T21:46:23.219Z,8.40
2023-05-05T21:48:50.110Z,8.00
2023-05-05T21:51:17.509Z,8.00
2023-05-05T21:53:44.604Z,8.10
2023-05-05T21:56:11.479Z,7.60
2023-05-05T21:58:38.569Z,7.40
2023-05-05T22:01:05.672Z,7.50
2023-05-05T22:03:34.145Z,7.60
2023-05-05T22:06:01.313Z,6.90
2023-05-05T22:08:28.160Z,6.20
2023-05-05T22:10:55.102Z,6.70
2023-05-05T22:13:22.240Z,7.70
2023-05-05T22:15:49.388Z,7.80
2023-05-05T22:18:16.289Z,8.60
2023-05-05T22:20:43.516Z,10.80
2023-05-05T22:23:10.281Z,11.60
2023-05-05T22:25:37.025Z,12.90
2023-05-05T22:28:04.496Z,12.60
2023-05-05T22:30:31.531Z,13.00
2023-05-05T22:32:58.408Z,11.20
2023-05-05T22:35:25.242Z,12.40
2023-05-05T22:37:52.039Z,11.70
2023-05-05T22:40:18.831Z,10.50
2023-05-05T22:42:45.649Z,10.90
2023-05-05T22:45:13.692Z,9.50
2023-05-05T22:47:40.780Z,10.50
2023-05-05T22:50:08.302Z,7.60
2023-05-05T22:52:35.597Z,7.80
2023-05-05T22:55:02.582Z,7.30
2023-05-05T22:57:29.307Z,7.30
2023-05-05T22:59:56.277Z,7.00
2023-05-05T23:02:23.081Z,6.70
2023-05-05T23:04:51.283Z,7.10
2023-05-05T23:07:18.262Z,6.50
2023-05-05T23:09:46.155Z,6.60
2023-05-05T23:12:12.979Z,6.40
2023-05-05T23:14:39.890Z,6.00
2023-05-05T23:17:07.056Z,6.30
2023-05-05T23:19:34.822Z,6.50
2023-05-05T23:22:02.411Z,7.10
2023-05-05T23:24:29.288Z,6.70
2023-05-05T23:26:59.739Z,6.40
2023-05-05T23:29:26.645Z,6.20
2023-05-05T23:31:53.476Z,6.10
2023-05-05T23:34:20.318Z,6.10
2023-05-05T23:36:47.189Z,6.40
2023-05-05T23:39:14.102Z,6.20
2023-05-05T23:41:40.894Z,6.50
2023-05-05T23:44:07.736Z,6.30
2023-05-05T23:46:34.841Z,6.30
2023-05-05T23:49:01.818Z,6.10
2023-05-05T23:51:28.644Z,5.50
2023-05-05T23:53:57.478Z,6.00
2023-05-05T23:56:24.582Z,6.10
2023-05-05T23:58:53.195Z,6.00
